Louis Armstrong New Orleans International Airport
KMSY : now visible

Airfield :











YOU CAN JOIN US ON...

 
LOGIN :

Register | Disclaimer

   EN    FR    IT 

 









Legend :    VFR   Marginal VFR   IFR   Intensive IFR   Very Intensive IFR
Visi :
Ceiling :
>= 8 km
>= 3000ft
5 to 8 km
1000 to 3000 ft
1500m to 5 km
500 to 1000 ft
800 to 1500m
200 to 500 ft
< 800m
< 200 ft
Symbols :   Thunderstorms  Fog  Heavy snow  Heavy precipitations  Wind > 20 kt






- Airport Elevation : 4 ft
- IATA code : MSY


KMSY - Louis Armstrong New Orleans International

CURRENT METAR :
  • 260653Z 17005KT 10SM SCT080 BKN095 OVC120 13/07 A3012 RMK AO2 SLP201 T01280072

EXPIRED METARs :
  • 260553Z 15005KT 10SM BKN090 OVC110 12/07 A3012 RMK AO2 SLP201 T01220072 10150 20117 401830050 58018
  • 260453Z 15003KT 10SM OVC100 12/08 A3015 RMK AO2 SLP212 T01220078

TAF KMSY
Valid from the 26 at 06:00 until the 27 at 12:00 UTC


260537Z 2606/2712 15003KT P6SM OVC100
FM260900 00000KT 6SM -SHRA OVC100
FM261300 13010G19KT 6SM -SHRA BR OVC025
FM262100 13010G21KT 6SM SHRA BR OVC015
FM262200 12009KT 6SM SHRA BR OVC008
FM270000 12006KT 6SM BR OVC003



MET'MAP, your aeronautical weather chart ! - Copyright ORBIFLY December 2007 - Disclaimer

ORBIFLY MET'MAP TEAM :

Programming & Development : Alexandra Zaïnal
Concept & original design : Baudouin d'Aumeries
Assistance for programming : Marc-Olivier Méhu
Technical & hardware support : Manuel Goepfert

Contact : metmap@orbifly.com




SOURCES & CREDITS :

   NOAA       Earth
Advisory